<?xml version="1.0" encoding="UTF-8" standalone="no" ?>
<gpx xmlns="http://www.topografix.com/GPX/1/1" xmlns:xsi="http://www.w3.org/2001/XMLSchema-instance" xsi:schemaLocation="http://www.topografix.com/GPX/1/1 http://www.topografix.com/GPX/1/1/gpx.xsd" version="1.1" creator="VisuGPX - https://www.visugpx.com">
  <metadata>
    <name>trail vouan 12</name>
    <desc><![CDATA[Parcours créé avec gpstraces.net. Indice IBP de cette trace : 97]]></desc>
  </metadata>
  <trk>
    <name><![CDATA[trail vouan 11.6-12km-IBP97-running]]></name>
    <desc><![CDATA[Parcours créé avec gpstraces.net. Indice IBP de cette trace : 97]]></desc>
    <trkseg>
      <trkpt lat="46.14824" lon="6.4024">
        <ele>613</ele>
        <time>2024-01-16T08:12:24Z</time>
      </trkpt>
      <trkpt lat="46.14799" lon="6.40314">
        <ele>616</ele>
        <time>2024-01-16T08:12:55Z</time>
      </trkpt>
      <trkpt lat="46.14729" lon="6.40261">
        <ele>615</ele>
        <time>2024-01-16T08:13:30Z</time>
      </trkpt>
      <trkpt lat="46.14781" lon="6.40113">
        <ele>612</ele>
        <time>2024-01-16T08:14:33Z</time>
      </trkpt>
      <trkpt lat="46.14837" lon="6.40152">
        <ele>615</ele>
        <time>2024-01-16T08:15:00Z</time>
      </trkpt>
      <trkpt lat="46.14887" lon="6.4011">
        <ele>615</ele>
        <time>2024-01-16T08:15:26Z</time>
      </trkpt>
      <trkpt lat="46.14888" lon="6.40108">
        <ele>614.1</ele>
        <time>2024-01-16T08:15:27Z</time>
      </trkpt>
      <trkpt lat="46.14897" lon="6.40113">
        <ele>614.1</ele>
        <time>2024-01-16T08:15:31Z</time>
      </trkpt>
      <trkpt lat="46.14922" lon="6.40111">
        <ele>614.1</ele>
        <time>2024-01-16T08:15:41Z</time>
      </trkpt>
      <trkpt lat="46.14944" lon="6.40105">
        <ele>614.2</ele>
        <time>2024-01-16T08:15:50Z</time>
      </trkpt>
      <trkpt lat="46.14956" lon="6.40106">
        <ele>614.2</ele>
        <time>2024-01-16T08:15:55Z</time>
      </trkpt>
      <trkpt lat="46.14964" lon="6.40109">
        <ele>614.3</ele>
        <time>2024-01-16T08:15:58Z</time>
      </trkpt>
      <trkpt lat="46.14966" lon="6.40101">
        <ele>614.4</ele>
        <time>2024-01-16T08:16:01Z</time>
      </trkpt>
      <trkpt lat="46.14967" lon="6.40096">
        <ele>614.5</ele>
        <time>2024-01-16T08:16:03Z</time>
      </trkpt>
      <trkpt lat="46.1497" lon="6.4008">
        <ele>614.4</ele>
        <time>2024-01-16T08:16:10Z</time>
      </trkpt>
      <trkpt lat="46.14971" lon="6.40072">
        <ele>614.4</ele>
        <time>2024-01-16T08:16:13Z</time>
      </trkpt>
      <trkpt lat="46.14973" lon="6.40061">
        <ele>614</ele>
        <time>2024-01-16T08:16:17Z</time>
      </trkpt>
      <trkpt lat="46.1498" lon="6.40014">
        <ele>614</ele>
        <time>2024-01-16T08:16:36Z</time>
      </trkpt>
      <trkpt lat="46.14982" lon="6.39986">
        <ele>614</ele>
        <time>2024-01-16T08:16:47Z</time>
      </trkpt>
      <trkpt lat="46.14993" lon="6.39983">
        <ele>614.5</ele>
        <time>2024-01-16T08:16:51Z</time>
      </trkpt>
      <trkpt lat="46.14999" lon="6.39978">
        <ele>614.9</ele>
        <time>2024-01-16T08:16:54Z</time>
      </trkpt>
      <trkpt lat="46.15024" lon="6.39936">
        <ele>616</ele>
        <time>2024-01-16T08:17:14Z</time>
      </trkpt>
      <trkpt lat="46.15044" lon="6.39893">
        <ele>616.9</ele>
        <time>2024-01-16T08:17:33Z</time>
      </trkpt>
      <trkpt lat="46.1506" lon="6.39851">
        <ele>617.7</ele>
        <time>2024-01-16T08:17:51Z</time>
      </trkpt>
      <trkpt lat="46.15076" lon="6.398">
        <ele>619.2</ele>
        <time>2024-01-16T08:18:12Z</time>
      </trkpt>
      <trkpt lat="46.15079" lon="6.39791">
        <ele>619.9</ele>
        <time>2024-01-16T08:18:16Z</time>
      </trkpt>
      <trkpt lat="46.15122" lon="6.39642">
        <ele>631</ele>
        <time>2024-01-16T08:19:18Z</time>
      </trkpt>
      <trkpt lat="46.15134" lon="6.39586">
        <ele>631.9</ele>
        <time>2024-01-16T08:19:41Z</time>
      </trkpt>
      <trkpt lat="46.15141" lon="6.39566">
        <ele>632.4</ele>
        <time>2024-01-16T08:19:49Z</time>
      </trkpt>
      <trkpt lat="46.15126" lon="6.39527">
        <ele>634.4</ele>
        <time>2024-01-16T08:20:06Z</time>
      </trkpt>
      <trkpt lat="46.15106" lon="6.39495">
        <ele>637.1</ele>
        <time>2024-01-16T08:20:21Z</time>
      </trkpt>
      <trkpt lat="46.151" lon="6.39476">
        <ele>638</ele>
        <time>2024-01-16T08:20:29Z</time>
      </trkpt>
      <trkpt lat="46.15084" lon="6.39426">
        <ele>647.7</ele>
        <time>2024-01-16T08:20:50Z</time>
      </trkpt>
      <trkpt lat="46.15084" lon="6.39412">
        <ele>647.8</ele>
        <time>2024-01-16T08:20:56Z</time>
      </trkpt>
      <trkpt lat="46.15096" lon="6.39395">
        <ele>647.7</ele>
        <time>2024-01-16T08:21:04Z</time>
      </trkpt>
      <trkpt lat="46.15102" lon="6.39381">
        <ele>648.1</ele>
        <time>2024-01-16T08:21:10Z</time>
      </trkpt>
      <trkpt lat="46.15119" lon="6.3931">
        <ele>648.9</ele>
        <time>2024-01-16T08:21:39Z</time>
      </trkpt>
      <trkpt lat="46.1513" lon="6.39242">
        <ele>648.9</ele>
        <time>2024-01-16T08:22:07Z</time>
      </trkpt>
      <trkpt lat="46.1514" lon="6.39145">
        <ele>649.5</ele>
        <time>2024-01-16T08:22:46Z</time>
      </trkpt>
      <trkpt lat="46.15149" lon="6.3906">
        <ele>651.8</ele>
        <time>2024-01-16T08:23:20Z</time>
      </trkpt>
      <trkpt lat="46.15182" lon="6.38994">
        <ele>654.1</ele>
        <time>2024-01-16T08:23:50Z</time>
      </trkpt>
      <trkpt lat="46.15209" lon="6.38935">
        <ele>655.9</ele>
        <time>2024-01-16T08:24:16Z</time>
      </trkpt>
      <trkpt lat="46.15228" lon="6.38886">
        <ele>657.7</ele>
        <time>2024-01-16T08:24:37Z</time>
      </trkpt>
      <trkpt lat="46.15262" lon="6.38826">
        <ele>660.9</ele>
        <time>2024-01-16T08:25:04Z</time>
      </trkpt>
      <trkpt lat="46.15272" lon="6.38697">
        <ele>665.2</ele>
        <time>2024-01-16T08:25:56Z</time>
      </trkpt>
      <trkpt lat="46.15277" lon="6.38615">
        <ele>666.9</ele>
        <time>2024-01-16T08:26:29Z</time>
      </trkpt>
      <trkpt lat="46.15279" lon="6.38545">
        <ele>667.4</ele>
        <time>2024-01-16T08:26:57Z</time>
      </trkpt>
      <trkpt lat="46.15292" lon="6.38463">
        <ele>667.2</ele>
        <time>2024-01-16T08:27:30Z</time>
      </trkpt>
      <trkpt lat="46.15294" lon="6.38422">
        <ele>666.9</ele>
        <time>2024-01-16T08:27:46Z</time>
      </trkpt>
      <trkpt lat="46.1529" lon="6.38348">
        <ele>666.5</ele>
        <time>2024-01-16T08:28:16Z</time>
      </trkpt>
      <trkpt lat="46.15289" lon="6.38327">
        <ele>666.1</ele>
        <time>2024-01-16T08:28:24Z</time>
      </trkpt>
      <trkpt lat="46.15293" lon="6.38313">
        <ele>666.1</ele>
        <time>2024-01-16T08:28:30Z</time>
      </trkpt>
      <trkpt lat="46.15304" lon="6.38294">
        <ele>666.1</ele>
        <time>2024-01-16T08:28:39Z</time>
      </trkpt>
      <trkpt lat="46.15312" lon="6.38274">
        <ele>666.1</ele>
        <time>2024-01-16T08:28:48Z</time>
      </trkpt>
      <trkpt lat="46.15312" lon="6.38249">
        <ele>665.2</ele>
        <time>2024-01-16T08:28:58Z</time>
      </trkpt>
      <trkpt lat="46.15311" lon="6.38227">
        <ele>664.6</ele>
        <time>2024-01-16T08:29:07Z</time>
      </trkpt>
      <trkpt lat="46.15306" lon="6.38198">
        <ele>663.6</ele>
        <time>2024-01-16T08:29:19Z</time>
      </trkpt>
      <trkpt lat="46.15309" lon="6.38171">
        <ele>663</ele>
        <time>2024-01-16T08:29:30Z</time>
      </trkpt>
      <trkpt lat="46.15338" lon="6.38097">
        <ele>662.1</ele>
        <time>2024-01-16T08:30:01Z</time>
      </trkpt>
      <trkpt lat="46.15374" lon="6.38028">
        <ele>661.1</ele>
        <time>2024-01-16T08:30:32Z</time>
      </trkpt>
      <trkpt lat="46.15381" lon="6.38011">
        <ele>660.8</ele>
        <time>2024-01-16T08:30:39Z</time>
      </trkpt>
      <trkpt lat="46.15401" lon="6.37957">
        <ele>660.7</ele>
        <time>2024-01-16T08:31:02Z</time>
      </trkpt>
      <trkpt lat="46.15402" lon="6.3795">
        <ele>660.7</ele>
        <time>2024-01-16T08:31:05Z</time>
      </trkpt>
      <trkpt lat="46.154" lon="6.37938">
        <ele>660.5</ele>
        <time>2024-01-16T08:31:10Z</time>
      </trkpt>
      <trkpt lat="46.1541" lon="6.37918">
        <ele>660.3</ele>
        <time>2024-01-16T08:31:19Z</time>
      </trkpt>
      <trkpt lat="46.15416" lon="6.37922">
        <ele>660.3</ele>
        <time>2024-01-16T08:31:22Z</time>
      </trkpt>
      <trkpt lat="46.1547" lon="6.37904">
        <ele>660.7</ele>
        <time>2024-01-16T08:31:45Z</time>
      </trkpt>
      <trkpt lat="46.1552" lon="6.37902">
        <ele>661.3</ele>
        <time>2024-01-16T08:32:05Z</time>
      </trkpt>
      <trkpt lat="46.15522" lon="6.37901">
        <ele>661.4</ele>
        <time>2024-01-16T08:32:06Z</time>
      </trkpt>
      <trkpt lat="46.15559" lon="6.37881">
        <ele>664</ele>
        <time>2024-01-16T08:32:23Z</time>
      </trkpt>
      <trkpt lat="46.15563" lon="6.37883">
        <ele>664.3</ele>
        <time>2024-01-16T08:32:25Z</time>
      </trkpt>
      <trkpt lat="46.15615" lon="6.37852">
        <ele>669</ele>
        <time>2024-01-16T08:32:49Z</time>
      </trkpt>
      <trkpt lat="46.15642" lon="6.37833">
        <ele>670.1</ele>
        <time>2024-01-16T08:33:02Z</time>
      </trkpt>
      <trkpt lat="46.15662" lon="6.37827">
        <ele>670.5</ele>
        <time>2024-01-16T08:33:10Z</time>
      </trkpt>
      <trkpt lat="46.15694" lon="6.37806">
        <ele>671.3</ele>
        <time>2024-01-16T08:33:25Z</time>
      </trkpt>
      <trkpt lat="46.1574" lon="6.37799">
        <ele>674.7</ele>
        <time>2024-01-16T08:33:43Z</time>
      </trkpt>
      <trkpt lat="46.15765" lon="6.37806">
        <ele>675.8</ele>
        <time>2024-01-16T08:33:53Z</time>
      </trkpt>
      <trkpt lat="46.15828" lon="6.37779">
        <ele>678.6</ele>
        <time>2024-01-16T08:34:20Z</time>
      </trkpt>
      <trkpt lat="46.15925" lon="6.37773">
        <ele>686.5</ele>
        <time>2024-01-16T08:34:59Z</time>
      </trkpt>
      <trkpt lat="46.15971" lon="6.3778">
        <ele>690.9</ele>
        <time>2024-01-16T08:35:17Z</time>
      </trkpt>
      <trkpt lat="46.15987" lon="6.37778">
        <ele>691.7</ele>
        <time>2024-01-16T08:35:23Z</time>
      </trkpt>
      <trkpt lat="46.16026" lon="6.37771">
        <ele>695.9</ele>
        <time>2024-01-16T08:35:39Z</time>
      </trkpt>
      <trkpt lat="46.16112" lon="6.3778">
        <ele>695.7</ele>
        <time>2024-01-16T08:36:14Z</time>
      </trkpt>
      <trkpt lat="46.16137" lon="6.37788">
        <ele>695.8</ele>
        <time>2024-01-16T08:36:24Z</time>
      </trkpt>
      <trkpt lat="46.16202" lon="6.37872">
        <ele>695.9</ele>
        <time>2024-01-16T08:37:06Z</time>
      </trkpt>
      <trkpt lat="46.16222" lon="6.37889">
        <ele>695.9</ele>
        <time>2024-01-16T08:37:17Z</time>
      </trkpt>
      <trkpt lat="46.16243" lon="6.3789">
        <ele>695.7</ele>
        <time>2024-01-16T08:37:25Z</time>
      </trkpt>
      <trkpt lat="46.16269" lon="6.37897">
        <ele>695.5</ele>
        <time>2024-01-16T08:37:36Z</time>
      </trkpt>
      <trkpt lat="46.1628" lon="6.37904">
        <ele>695.3</ele>
        <time>2024-01-16T08:37:41Z</time>
      </trkpt>
      <trkpt lat="46.16285" lon="6.37911">
        <ele>695.3</ele>
        <time>2024-01-16T08:37:44Z</time>
      </trkpt>
      <trkpt lat="46.16288" lon="6.37915">
        <ele>694</ele>
        <time>2024-01-16T08:37:46Z</time>
      </trkpt>
      <trkpt lat="46.16298" lon="6.37917">
        <ele>697</ele>
        <time>2024-01-16T08:37:50Z</time>
      </trkpt>
      <trkpt lat="46.16305" lon="6.37911">
        <ele>695.3</ele>
        <time>2024-01-16T08:37:54Z</time>
      </trkpt>
      <trkpt lat="46.16314" lon="6.37911">
        <ele>694.2</ele>
        <time>2024-01-16T08:37:58Z</time>
      </trkpt>
      <trkpt lat="46.16325" lon="6.37913">
        <ele>693.5</ele>
        <time>2024-01-16T08:38:02Z</time>
      </trkpt>
      <trkpt lat="46.16335" lon="6.37919">
        <ele>693.1</ele>
        <time>2024-01-16T08:38:07Z</time>
      </trkpt>
      <trkpt lat="46.16346" lon="6.37953">
        <ele>692.4</ele>
        <time>2024-01-16T08:38:21Z</time>
      </trkpt>
      <trkpt lat="46.1635" lon="6.37956">
        <ele>692.1</ele>
        <time>2024-01-16T08:38:23Z</time>
      </trkpt>
      <trkpt lat="46.16353" lon="6.37954">
        <ele>691.8</ele>
        <time>2024-01-16T08:38:25Z</time>
      </trkpt>
      <trkpt lat="46.16364" lon="6.37917">
        <ele>691</ele>
        <time>2024-01-16T08:38:40Z</time>
      </trkpt>
      <trkpt lat="46.16373" lon="6.37911">
        <ele>690.7</ele>
        <time>2024-01-16T08:38:44Z</time>
      </trkpt>
      <trkpt lat="46.16382" lon="6.37907">
        <ele>690.5</ele>
        <time>2024-01-16T08:38:48Z</time>
      </trkpt>
      <trkpt lat="46.16424" lon="6.37903">
        <ele>690.1</ele>
        <time>2024-01-16T08:39:05Z</time>
      </trkpt>
      <trkpt lat="46.16444" lon="6.37889">
        <ele>689</ele>
        <time>2024-01-16T08:39:15Z</time>
      </trkpt>
      <trkpt lat="46.16459" lon="6.37867">
        <ele>687.6</ele>
        <time>2024-01-16T08:39:26Z</time>
      </trkpt>
      <trkpt lat="46.16512" lon="6.37875">
        <ele>685.8</ele>
        <time>2024-01-16T08:39:48Z</time>
      </trkpt>
      <trkpt lat="46.16538" lon="6.37884">
        <ele>685.3</ele>
        <time>2024-01-16T08:39:59Z</time>
      </trkpt>
      <trkpt lat="46.1654" lon="6.37884">
        <ele>685.1</ele>
        <time>2024-01-16T08:40:00Z</time>
      </trkpt>
      <trkpt lat="46.16577" lon="6.37879">
        <ele>683.4</ele>
        <time>2024-01-16T08:40:15Z</time>
      </trkpt>
      <trkpt lat="46.16631" lon="6.37861">
        <ele>683.4</ele>
        <time>2024-01-16T08:40:37Z</time>
      </trkpt>
      <trkpt lat="46.16664" lon="6.37856">
        <ele>683.3</ele>
        <time>2024-01-16T08:40:50Z</time>
      </trkpt>
      <trkpt lat="46.16672" lon="6.37863">
        <ele>683</ele>
        <time>2024-01-16T08:40:54Z</time>
      </trkpt>
      <trkpt lat="46.16691" lon="6.37857">
        <ele>682.5</ele>
        <time>2024-01-16T08:41:02Z</time>
      </trkpt>
      <trkpt lat="46.16706" lon="6.37856">
        <ele>682.4</ele>
        <time>2024-01-16T08:41:08Z</time>
      </trkpt>
      <trkpt lat="46.16757" lon="6.37862">
        <ele>681.8</ele>
        <time>2024-01-16T08:41:29Z</time>
      </trkpt>
      <trkpt lat="46.1678" lon="6.37867">
        <ele>681.5</ele>
        <time>2024-01-16T08:41:38Z</time>
      </trkpt>
      <trkpt lat="46.16847" lon="6.37898">
        <ele>681.5</ele>
        <time>2024-01-16T08:42:07Z</time>
      </trkpt>
      <trkpt lat="46.16872" lon="6.37914">
        <ele>682.6</ele>
        <time>2024-01-16T08:42:19Z</time>
      </trkpt>
      <trkpt lat="46.16919" lon="6.37943">
        <ele>692.9</ele>
        <time>2024-01-16T08:42:41Z</time>
      </trkpt>
      <trkpt lat="46.16946" lon="6.37951">
        <ele>693.6</ele>
        <time>2024-01-16T08:42:52Z</time>
      </trkpt>
      <trkpt lat="46.16962" lon="6.37961">
        <ele>693.9</ele>
        <time>2024-01-16T08:43:00Z</time>
      </trkpt>
      <trkpt lat="46.16985" lon="6.3798">
        <ele>694.3</ele>
        <time>2024-01-16T08:43:12Z</time>
      </trkpt>
      <trkpt lat="46.16989" lon="6.3799">
        <ele>694.9</ele>
        <time>2024-01-16T08:43:16Z</time>
      </trkpt>
      <trkpt lat="46.16992" lon="6.38005">
        <ele>695.7</ele>
        <time>2024-01-16T08:43:22Z</time>
      </trkpt>
      <trkpt lat="46.16993" lon="6.38069">
        <ele>699.3</ele>
        <time>2024-01-16T08:43:48Z</time>
      </trkpt>
      <trkpt lat="46.17001" lon="6.38147">
        <ele>707.2</ele>
        <time>2024-01-16T08:44:20Z</time>
      </trkpt>
      <trkpt lat="46.17024" lon="6.38149">
        <ele>710.2</ele>
        <time>2024-01-16T08:44:29Z</time>
      </trkpt>
      <trkpt lat="46.17038" lon="6.38157">
        <ele>711.8</ele>
        <time>2024-01-16T08:44:35Z</time>
      </trkpt>
      <trkpt lat="46.17049" lon="6.3817">
        <ele>713.6</ele>
        <time>2024-01-16T08:44:42Z</time>
      </trkpt>
      <trkpt lat="46.17057" lon="6.38181">
        <ele>735.3</ele>
        <time>2024-01-16T08:44:47Z</time>
      </trkpt>
      <trkpt lat="46.17064" lon="6.38189">
        <ele>734.5</ele>
        <time>2024-01-16T08:44:51Z</time>
      </trkpt>
      <trkpt lat="46.17072" lon="6.38204">
        <ele>734.2</ele>
        <time>2024-01-16T08:44:58Z</time>
      </trkpt>
      <trkpt lat="46.17082" lon="6.38207">
        <ele>734.1</ele>
        <time>2024-01-16T08:45:02Z</time>
      </trkpt>
      <trkpt lat="46.17099" lon="6.38198">
        <ele>734.2</ele>
        <time>2024-01-16T08:45:10Z</time>
      </trkpt>
      <trkpt lat="46.17104" lon="6.38198">
        <ele>734.3</ele>
        <time>2024-01-16T08:45:12Z</time>
      </trkpt>
      <trkpt lat="46.1711" lon="6.38202">
        <ele>734.4</ele>
        <time>2024-01-16T08:45:15Z</time>
      </trkpt>
      <trkpt lat="46.17122" lon="6.38219">
        <ele>734.6</ele>
        <time>2024-01-16T08:45:24Z</time>
      </trkpt>
      <trkpt lat="46.17135" lon="6.3825">
        <ele>734.9</ele>
        <time>2024-01-16T08:45:37Z</time>
      </trkpt>
      <trkpt lat="46.17141" lon="6.38251">
        <ele>735</ele>
        <time>2024-01-16T08:45:39Z</time>
      </trkpt>
      <trkpt lat="46.17149" lon="6.38238">
        <ele>735.1</ele>
        <time>2024-01-16T08:45:45Z</time>
      </trkpt>
      <trkpt lat="46.17153" lon="6.38236">
        <ele>735.2</ele>
        <time>2024-01-16T08:45:47Z</time>
      </trkpt>
      <trkpt lat="46.17157" lon="6.38236">
        <ele>735.3</ele>
        <time>2024-01-16T08:45:49Z</time>
      </trkpt>
      <trkpt lat="46.17197" lon="6.38265">
        <ele>735.6</ele>
        <time>2024-01-16T08:46:09Z</time>
      </trkpt>
      <trkpt lat="46.17212" lon="6.38265">
        <ele>735.9</ele>
        <time>2024-01-16T08:46:15Z</time>
      </trkpt>
      <trkpt lat="46.17227" lon="6.38261">
        <ele>735.8</ele>
        <time>2024-01-16T08:46:21Z</time>
      </trkpt>
      <trkpt lat="46.17244" lon="6.38246">
        <ele>736.1</ele>
        <time>2024-01-16T08:46:30Z</time>
      </trkpt>
      <trkpt lat="46.17264" lon="6.3822">
        <ele>736.4</ele>
        <time>2024-01-16T08:46:43Z</time>
      </trkpt>
      <trkpt lat="46.1727" lon="6.38222">
        <ele>736.6</ele>
        <time>2024-01-16T08:46:45Z</time>
      </trkpt>
      <trkpt lat="46.1727" lon="6.38229">
        <ele>737.5</ele>
        <time>2024-01-16T08:46:48Z</time>
      </trkpt>
      <trkpt lat="46.17263" lon="6.38257">
        <ele>739.4</ele>
        <time>2024-01-16T08:46:59Z</time>
      </trkpt>
      <trkpt lat="46.17262" lon="6.38263">
        <ele>740.4</ele>
        <time>2024-01-16T08:47:01Z</time>
      </trkpt>
      <trkpt lat="46.17259" lon="6.38294">
        <ele>756.9</ele>
        <time>2024-01-16T08:47:13Z</time>
      </trkpt>
      <trkpt lat="46.17249" lon="6.38336">
        <ele>758.1</ele>
        <time>2024-01-16T08:47:30Z</time>
      </trkpt>
      <trkpt lat="46.17233" lon="6.38347">
        <ele>758.6</ele>
        <time>2024-01-16T08:47:38Z</time>
      </trkpt>
      <trkpt lat="46.17221" lon="6.38362">
        <ele>759</ele>
        <time>2024-01-16T08:47:46Z</time>
      </trkpt>
      <trkpt lat="46.17195" lon="6.38423">
        <ele>763.1</ele>
        <time>2024-01-16T08:48:12Z</time>
      </trkpt>
      <trkpt lat="46.1717" lon="6.38466">
        <ele>767.2</ele>
        <time>2024-01-16T08:48:32Z</time>
      </trkpt>
      <trkpt lat="46.17164" lon="6.38469">
        <ele>768.2</ele>
        <time>2024-01-16T08:48:35Z</time>
      </trkpt>
      <trkpt lat="46.1714" lon="6.38469">
        <ele>770</ele>
        <time>2024-01-16T08:48:44Z</time>
      </trkpt>
      <trkpt lat="46.17136" lon="6.38469">
        <ele>787.2</ele>
        <time>2024-01-16T08:48:46Z</time>
      </trkpt>
      <trkpt lat="46.17121" lon="6.38479">
        <ele>788.5</ele>
        <time>2024-01-16T08:48:54Z</time>
      </trkpt>
      <trkpt lat="46.171" lon="6.3851">
        <ele>791.9</ele>
        <time>2024-01-16T08:49:09Z</time>
      </trkpt>
      <trkpt lat="46.17084" lon="6.38526">
        <ele>793.4</ele>
        <time>2024-01-16T08:49:18Z</time>
      </trkpt>
      <trkpt lat="46.17074" lon="6.38527">
        <ele>794.1</ele>
        <time>2024-01-16T08:49:22Z</time>
      </trkpt>
      <trkpt lat="46.17046" lon="6.38502">
        <ele>795.2</ele>
        <time>2024-01-16T08:49:37Z</time>
      </trkpt>
      <trkpt lat="46.1701" lon="6.38492">
        <ele>797</ele>
        <time>2024-01-16T08:49:52Z</time>
      </trkpt>
      <trkpt lat="46.16976" lon="6.38478">
        <ele>799.6</ele>
        <time>2024-01-16T08:50:07Z</time>
      </trkpt>
      <trkpt lat="46.16948" lon="6.38462">
        <ele>804.3</ele>
        <time>2024-01-16T08:50:20Z</time>
      </trkpt>
      <trkpt lat="46.16911" lon="6.38513">
        <ele>814.3</ele>
        <time>2024-01-16T08:50:45Z</time>
      </trkpt>
      <trkpt lat="46.16888" lon="6.38535">
        <ele>818.9</ele>
        <time>2024-01-16T08:50:57Z</time>
      </trkpt>
      <trkpt lat="46.16876" lon="6.38537">
        <ele>821.7</ele>
        <time>2024-01-16T08:51:02Z</time>
      </trkpt>
      <trkpt lat="46.16866" lon="6.38531">
        <ele>825</ele>
        <time>2024-01-16T08:51:06Z</time>
      </trkpt>
      <trkpt lat="46.16856" lon="6.38532">
        <ele>828.3</ele>
        <time>2024-01-16T08:51:10Z</time>
      </trkpt>
      <trkpt lat="46.16845" lon="6.38542">
        <ele>831.7</ele>
        <time>2024-01-16T08:51:16Z</time>
      </trkpt>
      <trkpt lat="46.16836" lon="6.3854">
        <ele>835.2</ele>
        <time>2024-01-16T08:51:20Z</time>
      </trkpt>
      <trkpt lat="46.16805" lon="6.38511">
        <ele>849.2</ele>
        <time>2024-01-16T08:51:37Z</time>
      </trkpt>
      <trkpt lat="46.16799" lon="6.38508">
        <ele>852.4</ele>
        <time>2024-01-16T08:51:40Z</time>
      </trkpt>
      <trkpt lat="46.16787" lon="6.38512">
        <ele>855.5</ele>
        <time>2024-01-16T08:51:45Z</time>
      </trkpt>
      <trkpt lat="46.16785" lon="6.38512">
        <ele>882.2</ele>
        <time>2024-01-16T08:51:46Z</time>
      </trkpt>
      <trkpt lat="46.16772" lon="6.3851">
        <ele>882.8</ele>
        <time>2024-01-16T08:51:51Z</time>
      </trkpt>
      <trkpt lat="46.16754" lon="6.38495">
        <ele>883.3</ele>
        <time>2024-01-16T08:52:00Z</time>
      </trkpt>
      <trkpt lat="46.16744" lon="6.38471">
        <ele>884</ele>
        <time>2024-01-16T08:52:10Z</time>
      </trkpt>
      <trkpt lat="46.16721" lon="6.38455">
        <ele>884.5</ele>
        <time>2024-01-16T08:52:21Z</time>
      </trkpt>
      <trkpt lat="46.16717" lon="6.38448">
        <ele>884.7</ele>
        <time>2024-01-16T08:52:24Z</time>
      </trkpt>
      <trkpt lat="46.16711" lon="6.38423">
        <ele>884.7</ele>
        <time>2024-01-16T08:52:34Z</time>
      </trkpt>
      <trkpt lat="46.16709" lon="6.38363">
        <ele>884.6</ele>
        <time>2024-01-16T08:52:58Z</time>
      </trkpt>
      <trkpt lat="46.16706" lon="6.38354">
        <ele>884.6</ele>
        <time>2024-01-16T08:53:02Z</time>
      </trkpt>
      <trkpt lat="46.16696" lon="6.3834">
        <ele>884.6</ele>
        <time>2024-01-16T08:53:09Z</time>
      </trkpt>
      <trkpt lat="46.1669" lon="6.38325">
        <ele>882.9</ele>
        <time>2024-01-16T08:53:16Z</time>
      </trkpt>
      <trkpt lat="46.16687" lon="6.38317">
        <ele>881.4</ele>
        <time>2024-01-16T08:53:19Z</time>
      </trkpt>
      <trkpt lat="46.16665" lon="6.3834">
        <ele>880.7</ele>
        <time>2024-01-16T08:53:32Z</time>
      </trkpt>
      <trkpt lat="46.16662" lon="6.38338">
        <ele>881.1</ele>
        <time>2024-01-16T08:53:34Z</time>
      </trkpt>
      <trkpt lat="46.16661" lon="6.38346">
        <ele>881.6</ele>
        <time>2024-01-16T08:53:37Z</time>
      </trkpt>
      <trkpt lat="46.16663" lon="6.38356">
        <ele>882</ele>
        <time>2024-01-16T08:53:41Z</time>
      </trkpt>
      <trkpt lat="46.16661" lon="6.38363">
        <ele>882.5</ele>
        <time>2024-01-16T08:53:44Z</time>
      </trkpt>
      <trkpt lat="46.16642" lon="6.38392">
        <ele>884</ele>
        <time>2024-01-16T08:53:58Z</time>
      </trkpt>
      <trkpt lat="46.16619" lon="6.38406">
        <ele>885.1</ele>
        <time>2024-01-16T08:54:08Z</time>
      </trkpt>
      <trkpt lat="46.16609" lon="6.38425">
        <ele>887.6</ele>
        <time>2024-01-16T08:54:17Z</time>
      </trkpt>
      <trkpt lat="46.16588" lon="6.38426">
        <ele>892.5</ele>
        <time>2024-01-16T08:54:26Z</time>
      </trkpt>
      <trkpt lat="46.16569" lon="6.38426">
        <ele>932.3</ele>
        <time>2024-01-16T08:54:33Z</time>
      </trkpt>
      <trkpt lat="46.16549" lon="6.3843">
        <ele>932.2</ele>
        <time>2024-01-16T08:54:41Z</time>
      </trkpt>
      <trkpt lat="46.16532" lon="6.38425">
        <ele>932.4</ele>
        <time>2024-01-16T08:54:48Z</time>
      </trkpt>
      <trkpt lat="46.16517" lon="6.38416">
        <ele>932.3</ele>
        <time>2024-01-16T08:54:55Z</time>
      </trkpt>
      <trkpt lat="46.16496" lon="6.38413">
        <ele>931.7</ele>
        <time>2024-01-16T08:55:03Z</time>
      </trkpt>
      <trkpt lat="46.16485" lon="6.38426">
        <ele>931.3</ele>
        <time>2024-01-16T08:55:10Z</time>
      </trkpt>
      <trkpt lat="46.16485" lon="6.38432">
        <ele>931</ele>
        <time>2024-01-16T08:55:12Z</time>
      </trkpt>
      <trkpt lat="46.16491" lon="6.38438">
        <ele>930.7</ele>
        <time>2024-01-16T08:55:16Z</time>
      </trkpt>
      <trkpt lat="46.16497" lon="6.38452">
        <ele>930.4</ele>
        <time>2024-01-16T08:55:22Z</time>
      </trkpt>
      <trkpt lat="46.16508" lon="6.38466">
        <ele>930.2</ele>
        <time>2024-01-16T08:55:29Z</time>
      </trkpt>
      <trkpt lat="46.1651" lon="6.38497">
        <ele>931.2</ele>
        <time>2024-01-16T08:55:41Z</time>
      </trkpt>
      <trkpt lat="46.16544" lon="6.38489">
        <ele>933.1</ele>
        <time>2024-01-16T08:55:55Z</time>
      </trkpt>
      <trkpt lat="46.1655" lon="6.38488">
        <ele>946.8</ele>
        <time>2024-01-16T08:55:58Z</time>
      </trkpt>
      <trkpt lat="46.16559" lon="6.38488">
        <ele>947</ele>
        <time>2024-01-16T08:56:02Z</time>
      </trkpt>
      <trkpt lat="46.16592" lon="6.38503">
        <ele>947.6</ele>
        <time>2024-01-16T08:56:16Z</time>
      </trkpt>
      <trkpt lat="46.16615" lon="6.38527">
        <ele>948.4</ele>
        <time>2024-01-16T08:56:29Z</time>
      </trkpt>
      <trkpt lat="46.16625" lon="6.38542">
        <ele>949.5</ele>
        <time>2024-01-16T08:56:36Z</time>
      </trkpt>
      <trkpt lat="46.16666" lon="6.3862">
        <ele>953.6</ele>
        <time>2024-01-16T08:57:11Z</time>
      </trkpt>
      <trkpt lat="46.16682" lon="6.38616">
        <ele>953.5</ele>
        <time>2024-01-16T08:57:17Z</time>
      </trkpt>
      <trkpt lat="46.1669" lon="6.38617">
        <ele>953.4</ele>
        <time>2024-01-16T08:57:20Z</time>
      </trkpt>
      <trkpt lat="46.16704" lon="6.38616">
        <ele>950.6</ele>
        <time>2024-01-16T08:57:25Z</time>
      </trkpt>
      <trkpt lat="46.16715" lon="6.38617">
        <ele>950.4</ele>
        <time>2024-01-16T08:57:29Z</time>
      </trkpt>
      <trkpt lat="46.16725" lon="6.38621">
        <ele>950.3</ele>
        <time>2024-01-16T08:57:34Z</time>
      </trkpt>
      <trkpt lat="46.16738" lon="6.38643">
        <ele>949.8</ele>
        <time>2024-01-16T08:57:44Z</time>
      </trkpt>
      <trkpt lat="46.16762" lon="6.38663">
        <ele>949.4</ele>
        <time>2024-01-16T08:57:56Z</time>
      </trkpt>
      <trkpt lat="46.1678" lon="6.38686">
        <ele>949.3</ele>
        <time>2024-01-16T08:58:08Z</time>
      </trkpt>
      <trkpt lat="46.16796" lon="6.387">
        <ele>949.3</ele>
        <time>2024-01-16T08:58:17Z</time>
      </trkpt>
      <trkpt lat="46.16797" lon="6.38708">
        <ele>949.2</ele>
        <time>2024-01-16T08:58:20Z</time>
      </trkpt>
      <trkpt lat="46.16802" lon="6.38705">
        <ele>948.4</ele>
        <time>2024-01-16T08:58:22Z</time>
      </trkpt>
      <trkpt lat="46.1682" lon="6.38709">
        <ele>947.4</ele>
        <time>2024-01-16T08:58:29Z</time>
      </trkpt>
      <trkpt lat="46.16849" lon="6.38704">
        <ele>944.9</ele>
        <time>2024-01-16T08:58:41Z</time>
      </trkpt>
      <trkpt lat="46.16863" lon="6.38698">
        <ele>944.1</ele>
        <time>2024-01-16T08:58:47Z</time>
      </trkpt>
      <trkpt lat="46.16886" lon="6.38689">
        <ele>930.6</ele>
        <time>2024-01-16T08:58:57Z</time>
      </trkpt>
      <trkpt lat="46.16895" lon="6.38688">
        <ele>930.6</ele>
        <time>2024-01-16T08:59:00Z</time>
      </trkpt>
      <trkpt lat="46.16903" lon="6.38691">
        <ele>930.7</ele>
        <time>2024-01-16T08:59:03Z</time>
      </trkpt>
      <trkpt lat="46.16914" lon="6.38698">
        <ele>930.7</ele>
        <time>2024-01-16T08:59:08Z</time>
      </trkpt>
      <trkpt lat="46.1694" lon="6.38701">
        <ele>930.4</ele>
        <time>2024-01-16T08:59:18Z</time>
      </trkpt>
      <trkpt lat="46.16943" lon="6.38717">
        <ele>929.7</ele>
        <time>2024-01-16T08:59:25Z</time>
      </trkpt>
      <trkpt lat="46.16952" lon="6.3872">
        <ele>929.3</ele>
        <time>2024-01-16T08:59:29Z</time>
      </trkpt>
      <trkpt lat="46.16966" lon="6.3873">
        <ele>929</ele>
        <time>2024-01-16T08:59:36Z</time>
      </trkpt>
      <trkpt lat="46.16975" lon="6.38742">
        <ele>928.8</ele>
        <time>2024-01-16T08:59:42Z</time>
      </trkpt>
      <trkpt lat="46.16983" lon="6.3876">
        <ele>929.1</ele>
        <time>2024-01-16T08:59:50Z</time>
      </trkpt>
      <trkpt lat="46.17" lon="6.38764">
        <ele>928.1</ele>
        <time>2024-01-16T08:59:57Z</time>
      </trkpt>
      <trkpt lat="46.17026" lon="6.38753">
        <ele>926</ele>
        <time>2024-01-16T09:00:08Z</time>
      </trkpt>
      <trkpt lat="46.17047" lon="6.38752">
        <ele>924.3</ele>
        <time>2024-01-16T09:00:16Z</time>
      </trkpt>
      <trkpt lat="46.17048" lon="6.38752">
        <ele>909.7</ele>
        <time>2024-01-16T09:00:17Z</time>
      </trkpt>
      <trkpt lat="46.17099" lon="6.38722">
        <ele>908.7</ele>
        <time>2024-01-16T09:00:40Z</time>
      </trkpt>
      <trkpt lat="46.17124" lon="6.38727">
        <ele>908.1</ele>
        <time>2024-01-16T09:00:50Z</time>
      </trkpt>
      <trkpt lat="46.17146" lon="6.38721">
        <ele>907.7</ele>
        <time>2024-01-16T09:00:59Z</time>
      </trkpt>
      <trkpt lat="46.17194" lon="6.38702">
        <ele>907.8</ele>
        <time>2024-01-16T09:01:20Z</time>
      </trkpt>
      <trkpt lat="46.17242" lon="6.38705">
        <ele>908.3</ele>
        <time>2024-01-16T09:01:39Z</time>
      </trkpt>
      <trkpt lat="46.17306" lon="6.38713">
        <ele>913.2</ele>
        <time>2024-01-16T09:02:05Z</time>
      </trkpt>
      <trkpt lat="46.17338" lon="6.38718">
        <ele>918.5</ele>
        <time>2024-01-16T09:02:18Z</time>
      </trkpt>
      <trkpt lat="46.17367" lon="6.38718">
        <ele>924.4</ele>
        <time>2024-01-16T09:02:29Z</time>
      </trkpt>
      <trkpt lat="46.17377" lon="6.38719">
        <ele>946.2</ele>
        <time>2024-01-16T09:02:33Z</time>
      </trkpt>
      <trkpt lat="46.17398" lon="6.38727">
        <ele>945.7</ele>
        <time>2024-01-16T09:02:42Z</time>
      </trkpt>
      <trkpt lat="46.17405" lon="6.38736">
        <ele>946.7</ele>
        <time>2024-01-16T09:02:47Z</time>
      </trkpt>
      <trkpt lat="46.17391" lon="6.38745">
        <ele>945.1</ele>
        <time>2024-01-16T09:02:53Z</time>
      </trkpt>
      <trkpt lat="46.17354" lon="6.38758">
        <ele>941.5</ele>
        <time>2024-01-16T09:03:09Z</time>
      </trkpt>
      <trkpt lat="46.17294" lon="6.38769">
        <ele>938.4</ele>
        <time>2024-01-16T09:03:33Z</time>
      </trkpt>
      <trkpt lat="46.17279" lon="6.38774">
        <ele>938</ele>
        <time>2024-01-16T09:03:39Z</time>
      </trkpt>
      <trkpt lat="46.17231" lon="6.38801">
        <ele>935</ele>
        <time>2024-01-16T09:04:01Z</time>
      </trkpt>
      <trkpt lat="46.17185" lon="6.38815">
        <ele>930.7</ele>
        <time>2024-01-16T09:04:20Z</time>
      </trkpt>
      <trkpt lat="46.17171" lon="6.38822">
        <ele>929.6</ele>
        <time>2024-01-16T09:04:26Z</time>
      </trkpt>
      <trkpt lat="46.17057" lon="6.38877">
        <ele>910.7</ele>
        <time>2024-01-16T09:05:16Z</time>
      </trkpt>
      <trkpt lat="46.1701" lon="6.38888">
        <ele>908.8</ele>
        <time>2024-01-16T09:05:35Z</time>
      </trkpt>
      <trkpt lat="46.16975" lon="6.38919">
        <ele>906.4</ele>
        <time>2024-01-16T09:05:54Z</time>
      </trkpt>
      <trkpt lat="46.16946" lon="6.38938">
        <ele>902.7</ele>
        <time>2024-01-16T09:06:08Z</time>
      </trkpt>
      <trkpt lat="46.16929" lon="6.38948">
        <ele>899.7</ele>
        <time>2024-01-16T09:06:16Z</time>
      </trkpt>
      <trkpt lat="46.169" lon="6.38963">
        <ele>895.5</ele>
        <time>2024-01-16T09:06:29Z</time>
      </trkpt>
      <trkpt lat="46.16901" lon="6.38967">
        <ele>894.2</ele>
        <time>2024-01-16T09:06:30Z</time>
      </trkpt>
      <trkpt lat="46.16903" lon="6.38978">
        <ele>892.9</ele>
        <time>2024-01-16T09:06:35Z</time>
      </trkpt>
      <trkpt lat="46.16904" lon="6.39004">
        <ele>888.9</ele>
        <time>2024-01-16T09:06:45Z</time>
      </trkpt>
      <trkpt lat="46.169" lon="6.39038">
        <ele>884.5</ele>
        <time>2024-01-16T09:06:59Z</time>
      </trkpt>
      <trkpt lat="46.16899" lon="6.39044">
        <ele>860.8</ele>
        <time>2024-01-16T09:07:01Z</time>
      </trkpt>
      <trkpt lat="46.16899" lon="6.39061">
        <ele>858.5</ele>
        <time>2024-01-16T09:07:08Z</time>
      </trkpt>
      <trkpt lat="46.16875" lon="6.39099">
        <ele>851.7</ele>
        <time>2024-01-16T09:07:26Z</time>
      </trkpt>
      <trkpt lat="46.16868" lon="6.39099">
        <ele>850</ele>
        <time>2024-01-16T09:07:29Z</time>
      </trkpt>
      <trkpt lat="46.16853" lon="6.39093">
        <ele>848.6</ele>
        <time>2024-01-16T09:07:36Z</time>
      </trkpt>
      <trkpt lat="46.16845" lon="6.39094">
        <ele>847.3</ele>
        <time>2024-01-16T09:07:39Z</time>
      </trkpt>
      <trkpt lat="46.16806" lon="6.39117">
        <ele>844.3</ele>
        <time>2024-01-16T09:07:57Z</time>
      </trkpt>
      <trkpt lat="46.16787" lon="6.39144">
        <ele>843.1</ele>
        <time>2024-01-16T09:08:10Z</time>
      </trkpt>
      <trkpt lat="46.16771" lon="6.39157">
        <ele>842.1</ele>
        <time>2024-01-16T09:08:18Z</time>
      </trkpt>
      <trkpt lat="46.16728" lon="6.39182">
        <ele>835.8</ele>
        <time>2024-01-16T09:08:38Z</time>
      </trkpt>
      <trkpt lat="46.16705" lon="6.392">
        <ele>833.3</ele>
        <time>2024-01-16T09:08:50Z</time>
      </trkpt>
      <trkpt lat="46.16674" lon="6.39231">
        <ele>829.2</ele>
        <time>2024-01-16T09:09:07Z</time>
      </trkpt>
      <trkpt lat="46.16653" lon="6.39255">
        <ele>825.6</ele>
        <time>2024-01-16T09:09:20Z</time>
      </trkpt>
      <trkpt lat="46.16595" lon="6.39322">
        <ele>809.1</ele>
        <time>2024-01-16T09:09:55Z</time>
      </trkpt>
      <trkpt lat="46.16573" lon="6.39342">
        <ele>808.3</ele>
        <time>2024-01-16T09:10:07Z</time>
      </trkpt>
      <trkpt lat="46.16568" lon="6.39348">
        <ele>808</ele>
        <time>2024-01-16T09:10:10Z</time>
      </trkpt>
      <trkpt lat="46.16559" lon="6.39367">
        <ele>807.7</ele>
        <time>2024-01-16T09:10:18Z</time>
      </trkpt>
      <trkpt lat="46.16557" lon="6.39377">
        <ele>807.5</ele>
        <time>2024-01-16T09:10:22Z</time>
      </trkpt>
      <trkpt lat="46.16556" lon="6.39395">
        <ele>806.8</ele>
        <time>2024-01-16T09:10:29Z</time>
      </trkpt>
      <trkpt lat="46.16542" lon="6.39404">
        <ele>805.6</ele>
        <time>2024-01-16T09:10:36Z</time>
      </trkpt>
      <trkpt lat="46.16494" lon="6.39419">
        <ele>799.7</ele>
        <time>2024-01-16T09:10:56Z</time>
      </trkpt>
      <trkpt lat="46.16488" lon="6.39421">
        <ele>798.2</ele>
        <time>2024-01-16T09:10:58Z</time>
      </trkpt>
      <trkpt lat="46.16484" lon="6.39426">
        <ele>796.7</ele>
        <time>2024-01-16T09:11:00Z</time>
      </trkpt>
      <trkpt lat="46.16431" lon="6.39504">
        <ele>786.1</ele>
        <time>2024-01-16T09:11:38Z</time>
      </trkpt>
      <trkpt lat="46.16427" lon="6.39514">
        <ele>784.8</ele>
        <time>2024-01-16T09:11:42Z</time>
      </trkpt>
      <trkpt lat="46.16425" lon="6.39525">
        <ele>783.7</ele>
        <time>2024-01-16T09:11:46Z</time>
      </trkpt>
      <trkpt lat="46.16427" lon="6.39574">
        <ele>780.8</ele>
        <time>2024-01-16T09:12:06Z</time>
      </trkpt>
      <trkpt lat="46.1643" lon="6.39599">
        <ele>779.7</ele>
        <time>2024-01-16T09:12:16Z</time>
      </trkpt>
      <trkpt lat="46.1643" lon="6.39612">
        <ele>779.1</ele>
        <time>2024-01-16T09:12:21Z</time>
      </trkpt>
      <trkpt lat="46.16425" lon="6.39647">
        <ele>778.1</ele>
        <time>2024-01-16T09:12:35Z</time>
      </trkpt>
      <trkpt lat="46.1642" lon="6.39677">
        <ele>771.4</ele>
        <time>2024-01-16T09:12:47Z</time>
      </trkpt>
      <trkpt lat="46.16415" lon="6.39692">
        <ele>768.8</ele>
        <time>2024-01-16T09:12:53Z</time>
      </trkpt>
      <trkpt lat="46.16385" lon="6.39667">
        <ele>764</ele>
        <time>2024-01-16T09:13:09Z</time>
      </trkpt>
      <trkpt lat="46.16343" lon="6.39635">
        <ele>760.5</ele>
        <time>2024-01-16T09:13:30Z</time>
      </trkpt>
      <trkpt lat="46.16335" lon="6.39619">
        <ele>760.1</ele>
        <time>2024-01-16T09:13:37Z</time>
      </trkpt>
      <trkpt lat="46.16326" lon="6.39591">
        <ele>759.4</ele>
        <time>2024-01-16T09:13:49Z</time>
      </trkpt>
      <trkpt lat="46.16324" lon="6.39583">
        <ele>754.4</ele>
        <time>2024-01-16T09:13:52Z</time>
      </trkpt>
      <trkpt lat="46.16322" lon="6.39567">
        <ele>754.2</ele>
        <time>2024-01-16T09:13:58Z</time>
      </trkpt>
      <trkpt lat="46.16322" lon="6.39532">
        <ele>753.7</ele>
        <time>2024-01-16T09:14:12Z</time>
      </trkpt>
      <trkpt lat="46.16317" lon="6.39476">
        <ele>753.1</ele>
        <time>2024-01-16T09:14:34Z</time>
      </trkpt>
      <trkpt lat="46.16314" lon="6.39473">
        <ele>753</ele>
        <time>2024-01-16T09:14:36Z</time>
      </trkpt>
      <trkpt lat="46.16303" lon="6.3947">
        <ele>752.9</ele>
        <time>2024-01-16T09:14:40Z</time>
      </trkpt>
      <trkpt lat="46.16295" lon="6.39463">
        <ele>752.8</ele>
        <time>2024-01-16T09:14:44Z</time>
      </trkpt>
      <trkpt lat="46.16286" lon="6.39451">
        <ele>752.7</ele>
        <time>2024-01-16T09:14:50Z</time>
      </trkpt>
      <trkpt lat="46.16278" lon="6.39438">
        <ele>752.6</ele>
        <time>2024-01-16T09:14:56Z</time>
      </trkpt>
      <trkpt lat="46.16271" lon="6.39418">
        <ele>752.6</ele>
        <time>2024-01-16T09:15:05Z</time>
      </trkpt>
      <trkpt lat="46.16264" lon="6.39403">
        <ele>752.8</ele>
        <time>2024-01-16T09:15:12Z</time>
      </trkpt>
      <trkpt lat="46.16268" lon="6.39454">
        <ele>753.1</ele>
        <time>2024-01-16T09:15:32Z</time>
      </trkpt>
      <trkpt lat="46.16273" lon="6.39504">
        <ele>751.1</ele>
        <time>2024-01-16T09:15:52Z</time>
      </trkpt>
      <trkpt lat="46.16272" lon="6.39517">
        <ele>750.6</ele>
        <time>2024-01-16T09:15:57Z</time>
      </trkpt>
      <trkpt lat="46.1627" lon="6.39527">
        <ele>750.2</ele>
        <time>2024-01-16T09:16:01Z</time>
      </trkpt>
      <trkpt lat="46.16264" lon="6.39542">
        <ele>749.6</ele>
        <time>2024-01-16T09:16:08Z</time>
      </trkpt>
      <trkpt lat="46.16249" lon="6.3957">
        <ele>748.6</ele>
        <time>2024-01-16T09:16:21Z</time>
      </trkpt>
      <trkpt lat="46.1617" lon="6.39682">
        <ele>742.6</ele>
        <time>2024-01-16T09:17:16Z</time>
      </trkpt>
      <trkpt lat="46.16145" lon="6.39739">
        <ele>738.4</ele>
        <time>2024-01-16T09:17:41Z</time>
      </trkpt>
      <trkpt lat="46.16139" lon="6.39752">
        <ele>731.3</ele>
        <time>2024-01-16T09:17:47Z</time>
      </trkpt>
      <trkpt lat="46.16135" lon="6.39775">
        <ele>728.9</ele>
        <time>2024-01-16T09:17:56Z</time>
      </trkpt>
      <trkpt lat="46.16135" lon="6.39777">
        <ele>727.6</ele>
        <time>2024-01-16T09:17:57Z</time>
      </trkpt>
      <trkpt lat="46.16122" lon="6.39776">
        <ele>725.8</ele>
        <time>2024-01-16T09:18:02Z</time>
      </trkpt>
      <trkpt lat="46.16108" lon="6.39779">
        <ele>724.1</ele>
        <time>2024-01-16T09:18:08Z</time>
      </trkpt>
      <trkpt lat="46.16083" lon="6.39792">
        <ele>721.2</ele>
        <time>2024-01-16T09:18:19Z</time>
      </trkpt>
      <trkpt lat="46.16049" lon="6.39835">
        <ele>718.4</ele>
        <time>2024-01-16T09:18:41Z</time>
      </trkpt>
      <trkpt lat="46.16044" lon="6.39847">
        <ele>718</ele>
        <time>2024-01-16T09:18:46Z</time>
      </trkpt>
      <trkpt lat="46.16038" lon="6.39855">
        <ele>717.6</ele>
        <time>2024-01-16T09:18:50Z</time>
      </trkpt>
      <trkpt lat="46.16012" lon="6.39886">
        <ele>716.4</ele>
        <time>2024-01-16T09:19:06Z</time>
      </trkpt>
      <trkpt lat="46.15999" lon="6.3989">
        <ele>716</ele>
        <time>2024-01-16T09:19:11Z</time>
      </trkpt>
      <trkpt lat="46.15959" lon="6.39896">
        <ele>711.4</ele>
        <time>2024-01-16T09:19:27Z</time>
      </trkpt>
      <trkpt lat="46.15938" lon="6.39907">
        <ele>709.7</ele>
        <time>2024-01-16T09:19:36Z</time>
      </trkpt>
      <trkpt lat="46.15906" lon="6.39906">
        <ele>706.9</ele>
        <time>2024-01-16T09:19:49Z</time>
      </trkpt>
      <trkpt lat="46.15892" lon="6.3991">
        <ele>705.9</ele>
        <time>2024-01-16T09:19:55Z</time>
      </trkpt>
      <trkpt lat="46.15853" lon="6.39932">
        <ele>701.7</ele>
        <time>2024-01-16T09:20:13Z</time>
      </trkpt>
      <trkpt lat="46.15824" lon="6.3997">
        <ele>697.7</ele>
        <time>2024-01-16T09:20:32Z</time>
      </trkpt>
      <trkpt lat="46.15805" lon="6.4">
        <ele>693.2</ele>
        <time>2024-01-16T09:20:46Z</time>
      </trkpt>
      <trkpt lat="46.15775" lon="6.40068">
        <ele>683.1</ele>
        <time>2024-01-16T09:21:16Z</time>
      </trkpt>
      <trkpt lat="46.1569" lon="6.40197">
        <ele>660.6</ele>
        <time>2024-01-16T09:22:18Z</time>
      </trkpt>
      <trkpt lat="46.15674" lon="6.40203">
        <ele>659.3</ele>
        <time>2024-01-16T09:22:25Z</time>
      </trkpt>
      <trkpt lat="46.15659" lon="6.40201">
        <ele>658.1</ele>
        <time>2024-01-16T09:22:31Z</time>
      </trkpt>
      <trkpt lat="46.15646" lon="6.40206">
        <ele>657</ele>
        <time>2024-01-16T09:22:37Z</time>
      </trkpt>
      <trkpt lat="46.1564" lon="6.40217">
        <ele>655.9</ele>
        <time>2024-01-16T09:22:42Z</time>
      </trkpt>
      <trkpt lat="46.1564" lon="6.40248">
        <ele>653.9</ele>
        <time>2024-01-16T09:22:54Z</time>
      </trkpt>
      <trkpt lat="46.15645" lon="6.40255">
        <ele>653</ele>
        <time>2024-01-16T09:22:57Z</time>
      </trkpt>
      <trkpt lat="46.15648" lon="6.4026">
        <ele>647</ele>
        <time>2024-01-16T09:23:00Z</time>
      </trkpt>
      <trkpt lat="46.1566" lon="6.40268">
        <ele>647</ele>
        <time>2024-01-16T09:23:05Z</time>
      </trkpt>
      <trkpt lat="46.15662" lon="6.40272">
        <ele>647</ele>
        <time>2024-01-16T09:23:07Z</time>
      </trkpt>
      <trkpt lat="46.15662" lon="6.40278">
        <ele>647</ele>
        <time>2024-01-16T09:23:09Z</time>
      </trkpt>
      <trkpt lat="46.1566" lon="6.40284">
        <ele>647</ele>
        <time>2024-01-16T09:23:12Z</time>
      </trkpt>
      <trkpt lat="46.1565" lon="6.40294">
        <ele>647</ele>
        <time>2024-01-16T09:23:17Z</time>
      </trkpt>
      <trkpt lat="46.15639" lon="6.40306">
        <ele>647</ele>
        <time>2024-01-16T09:23:23Z</time>
      </trkpt>
      <trkpt lat="46.15618" lon="6.40328">
        <ele>647.8</ele>
        <time>2024-01-16T09:23:36Z</time>
      </trkpt>
      <trkpt lat="46.15609" lon="6.40334">
        <ele>648.2</ele>
        <time>2024-01-16T09:23:40Z</time>
      </trkpt>
      <trkpt lat="46.15595" lon="6.40338">
        <ele>648.4</ele>
        <time>2024-01-16T09:23:45Z</time>
      </trkpt>
      <trkpt lat="46.15527" lon="6.40341">
        <ele>649.5</ele>
        <time>2024-01-16T09:24:12Z</time>
      </trkpt>
      <trkpt lat="46.15504" lon="6.40336">
        <ele>649.9</ele>
        <time>2024-01-16T09:24:21Z</time>
      </trkpt>
      <trkpt lat="46.15481" lon="6.40324">
        <ele>650.3</ele>
        <time>2024-01-16T09:24:32Z</time>
      </trkpt>
      <trkpt lat="46.15469" lon="6.40324">
        <ele>650.6</ele>
        <time>2024-01-16T09:24:37Z</time>
      </trkpt>
      <trkpt lat="46.1546" lon="6.40329">
        <ele>650.9</ele>
        <time>2024-01-16T09:24:41Z</time>
      </trkpt>
      <trkpt lat="46.15454" lon="6.40338">
        <ele>651.2</ele>
        <time>2024-01-16T09:24:45Z</time>
      </trkpt>
      <trkpt lat="46.15445" lon="6.40361">
        <ele>651.5</ele>
        <time>2024-01-16T09:24:55Z</time>
      </trkpt>
      <trkpt lat="46.15415" lon="6.40423">
        <ele>652.6</ele>
        <time>2024-01-16T09:25:23Z</time>
      </trkpt>
      <trkpt lat="46.1537" lon="6.40508">
        <ele>655.1</ele>
        <time>2024-01-16T09:26:01Z</time>
      </trkpt>
      <trkpt lat="46.15295" lon="6.40605">
        <ele>659.8</ele>
        <time>2024-01-16T09:26:50Z</time>
      </trkpt>
      <trkpt lat="46.15275" lon="6.40612">
        <ele>660.6</ele>
        <time>2024-01-16T09:26:59Z</time>
      </trkpt>
      <trkpt lat="46.15265" lon="6.40618">
        <ele>660.9</ele>
        <time>2024-01-16T09:27:04Z</time>
      </trkpt>
      <trkpt lat="46.15221" lon="6.40651">
        <ele>662.1</ele>
        <time>2024-01-16T09:27:26Z</time>
      </trkpt>
      <trkpt lat="46.15195" lon="6.40675">
        <ele>662.5</ele>
        <time>2024-01-16T09:27:40Z</time>
      </trkpt>
      <trkpt lat="46.15176" lon="6.407">
        <ele>662.7</ele>
        <time>2024-01-16T09:27:53Z</time>
      </trkpt>
      <trkpt lat="46.15174" lon="6.40703">
        <ele>662.5</ele>
        <time>2024-01-16T09:27:55Z</time>
      </trkpt>
      <trkpt lat="46.15157" lon="6.40729">
        <ele>662.4</ele>
        <time>2024-01-16T09:28:07Z</time>
      </trkpt>
      <trkpt lat="46.15146" lon="6.40753">
        <ele>662.6</ele>
        <time>2024-01-16T09:28:17Z</time>
      </trkpt>
      <trkpt lat="46.1514" lon="6.4078">
        <ele>663.1</ele>
        <time>2024-01-16T09:28:28Z</time>
      </trkpt>
      <trkpt lat="46.15112" lon="6.40714">
        <ele>662.1</ele>
        <time>2024-01-16T09:28:57Z</time>
      </trkpt>
      <trkpt lat="46.15095" lon="6.40685">
        <ele>661.6</ele>
        <time>2024-01-16T09:29:10Z</time>
      </trkpt>
      <trkpt lat="46.15076" lon="6.40666">
        <ele>661</ele>
        <time>2024-01-16T09:29:21Z</time>
      </trkpt>
      <trkpt lat="46.15054" lon="6.40632">
        <ele>659.1</ele>
        <time>2024-01-16T09:29:37Z</time>
      </trkpt>
      <trkpt lat="46.15047" lon="6.4061">
        <ele>658.1</ele>
        <time>2024-01-16T09:29:47Z</time>
      </trkpt>
      <trkpt lat="46.15038" lon="6.40581">
        <ele>643.3</ele>
        <time>2024-01-16T09:29:59Z</time>
      </trkpt>
      <trkpt lat="46.15036" lon="6.40548">
        <ele>642.9</ele>
        <time>2024-01-16T09:30:12Z</time>
      </trkpt>
      <trkpt lat="46.15029" lon="6.40532">
        <ele>642.4</ele>
        <time>2024-01-16T09:30:19Z</time>
      </trkpt>
      <trkpt lat="46.14954" lon="6.4049">
        <ele>639.1</ele>
        <time>2024-01-16T09:30:53Z</time>
      </trkpt>
      <trkpt lat="46.14935" lon="6.40473">
        <ele>638.2</ele>
        <time>2024-01-16T09:31:03Z</time>
      </trkpt>
      <trkpt lat="46.14926" lon="6.40465">
        <ele>637.8</ele>
        <time>2024-01-16T09:31:08Z</time>
      </trkpt>
      <trkpt lat="46.1488" lon="6.40428">
        <ele>635.2</ele>
        <time>2024-01-16T09:31:31Z</time>
      </trkpt>
      <trkpt lat="46.14878" lon="6.40427">
        <ele>628</ele>
        <time>2024-01-16T09:31:32Z</time>
      </trkpt>
      <trkpt lat="46.14861" lon="6.40417">
        <ele>627</ele>
        <time>2024-01-16T09:31:40Z</time>
      </trkpt>
      <trkpt lat="46.14846" lon="6.40404">
        <ele>626</ele>
        <time>2024-01-16T09:31:48Z</time>
      </trkpt>
      <trkpt lat="46.1485" lon="6.40393">
        <ele>625.4</ele>
        <time>2024-01-16T09:31:53Z</time>
      </trkpt>
      <trkpt lat="46.14875" lon="6.40349">
        <ele>624.3</ele>
        <time>2024-01-16T09:32:13Z</time>
      </trkpt>
      <trkpt lat="46.14879" lon="6.40338">
        <ele>624.2</ele>
        <time>2024-01-16T09:32:18Z</time>
      </trkpt>
      <trkpt lat="46.14891" lon="6.40299">
        <ele>623.5</ele>
        <time>2024-01-16T09:32:35Z</time>
      </trkpt>
      <trkpt lat="46.14899" lon="6.40272">
        <ele>619.3</ele>
        <time>2024-01-16T09:32:46Z</time>
      </trkpt>
      <trkpt lat="46.1491" lon="6.4024">
        <ele>617.6</ele>
        <time>2024-01-16T09:32:59Z</time>
      </trkpt>
      <trkpt lat="46.14959" lon="6.4012">
        <ele>615.4</ele>
        <time>2024-01-16T09:33:51Z</time>
      </trkpt>
      <trkpt lat="46.14887" lon="6.40117">
        <ele>615</ele>
        <time>2024-01-16T09:34:20Z</time>
      </trkpt>
      <trkpt lat="46.14858" lon="6.40146">
        <ele>615</ele>
        <time>2024-01-16T09:34:37Z</time>
      </trkpt>
      <trkpt lat="46.14827" lon="6.40234">
        <ele>613</ele>
        <time>2024-01-16T09:35:14Z</time>
      </trkpt>
    </trkseg>
  </trk>
</gpx>